Time;durP1;ratioP1;P1;durP2;ratioP2;P2;SDS_P1;SDS_P2;PMS_P1;PMS_P2;Temp;Humidity;BMP_temperature;BMP_pressure;BME280_temperature;BME280_humidity;BME280_pressure;Samples;Min_cycle;Max_cycle;Signal;HPM_P1;HPM_P2
2022/10/24 00:00:18;;;;;;;6.33;2.07;;;;;;;14.13;100.00;100243.41;6000184;28;20384;-66
2022/10/24 00:03:14;;;;;;;6.97;2.25;;;;;;;14.05;100.00;100232.03;6000827;28;20129;-66
2022/10/24 00:06:11;;;;;;;4.90;1.90;;;;;;;14.01;100.00;100239.53;6000574;28;20042;-67
2022/10/24 00:09:07;;;;;;;5.07;2.03;;;;;;;14.04;100.00;100233.03;6001162;28;20035;-66
2022/10/24 00:12:03;;;;;;;8.75;2.00;;;;;;;14.07;100.00;100233.50;5999879;28;20553;-67
2022/10/24 00:14:59;;;;;;;6.63;2.42;;;;;;;14.11;100.00;100250.78;6000589;28;20038;-66
2022/10/24 00:17:54;;;;;;;4.18;2.03;;;;;;;14.07;100.00;100265.50;6000148;28;20027;-66
2022/10/24 00:20:49;;;;;;;3.87;2.00;;;;;;;13.95;100.00;100266.91;5999949;28;20050;-66
2022/10/24 00:23:45;;;;;;;4.53;2.40;;;;;;;13.97;100.00;100280.88;6000295;28;20432;-66
2022/10/24 00:26:40;;;;;;;8.45;2.28;;;;;;;14.01;100.00;100271.53;6000127;28;20379;-67
2022/10/24 00:29:36;;;;;;;6.70;3.08;;;;;;;14.00;100.00;100259.19;6000305;28;20118;-66
2022/10/24 00:32:31;;;;;;;4.60;2.03;;;;;;;13.89;100.00;100232.16;5999696;28;20464;-67
2022/10/24 00:35:26;;;;;;;4.55;1.77;;;;;;;13.91;100.00;100241.63;5999790;28;20336;-66
2022/10/24 00:38:22;;;;;;;8.82;2.25;;;;;;;13.98;100.00;100258.56;6000209;28;20046;-66
2022/10/24 00:41:24;;;;;;;9.23;2.10;;;;;;;13.99;100.00;100265.56;5999312;28;20035;-66
2022/10/24 00:44:23;;;;;;;4.53;1.98;;;;;;;13.99;100.00;100268.22;5999813;28;20101;-66
2022/10/24 00:47:19;;;;;;;6.55;2.25;;;;;;;13.98;100.00;100271.88;5999431;28;20081;-66
2022/10/24 00:50:15;;;;;;;7.70;2.08;;;;;;;13.97;100.00;100280.88;5997867;28;20052;-67
2022/10/24 00:53:10;;;;;;;4.97;1.80;;;;;;;13.83;100.00;100260.34;5999631;28;20470;-66
2022/10/24 00:56:06;;;;;;;4.32;1.70;;;;;;;13.96;100.00;100273.06;5999520;28;20027;-66
2022/10/24 00:59:04;;;;;;;5.72;1.75;;;;;;;13.88;100.00;100263.31;5998413;28;20593;-66
2022/10/24 01:01:59;;;;;;;7.18;2.28;;;;;;;13.85;100.00;100254.84;5998824;28;20023;-66
2022/10/24 01:04:55;;;;;;;6.18;2.22;;;;;;;13.84;100.00;100259.31;5998929;28;20132;-66
2022/10/24 01:08:02;;;;;;;3.60;1.80;;;;;;;13.79;100.00;100267.03;5997808;28;20134;-66
2022/10/24 01:11:09;;;;;;;2.80;1.70;;;;;;;13.71;100.00;100261.75;5998499;28;20039;-66
2022/10/24 01:14:08;;;;;;;6.43;1.90;;;;;;;13.70;100.00;100262.75;5998095;28;20037;-67
2022/10/24 01:17:05;;;;;;;5.35;1.65;;;;;;;13.79;100.00;100255.53;5999098;28;20038;-66
2022/10/24 01:20:25;;;;;;;5.50;2.10;;;;;;;13.82;100.00;100249.84;5999312;28;20030;-66
2022/10/24 01:23:28;;;;;;;4.35;2.03;;;;;;;13.76;100.00;100232.75;5999267;28;20202;-66
2022/10/24 01:26:23;;;;;;;5.38;2.05;;;;;;;13.82;100.00;100249.84;5998041;28;20073;-66
2022/10/24 01:29:46;;;;;;;5.30;1.93;;;;;;;13.76;100.00;100251.41;5998746;28;20064;-66
2022/10/24 01:32:44;;;;;;;3.88;1.63;;;;;;;13.68;100.00;100256.78;5997149;28;20038;-66
2022/10/24 01:35:49;;;;;;;5.10;2.33;;;;;;;13.66;100.00;100245.47;5998538;28;20541;-67
2022/10/24 01:38:47;;;;;;;6.35;2.17;;;;;;;13.70;100.00;100244.94;5997648;28;20031;-66
2022/10/24 01:41:43;;;;;;;4.50;2.13;;;;;;;13.73;100.00;100238.41;5996607;28;20038;-67
2022/10/24 01:44:41;;;;;;;4.63;2.25;;;;;;;13.65;100.00;100244.66;5997393;28;20039;-66
2022/10/24 01:47:42;;;;;;;4.28;1.80;;;;;;;13.56;100.00;100234.25;5997380;28;20037;-66
2022/10/24 01:50:38;;;;;;;6.38;2.55;;;;;;;13.59;100.00;100231.19;5998427;28;20035;-67
2022/10/24 01:53:34;;;;;;;7.10;2.38;;;;;;;13.62;100.00;100220.19;5997504;28;20042;-67
2022/10/24 01:56:29;;;;;;;10.00;3.00;;;;;;;13.67;100.00;100231.13;5997145;28;20038;-66
2022/10/24 01:59:24;;;;;;;4.30;2.20;;;;;;;13.64;100.00;100212.88;5998491;28;20323;-66
2022/10/24 02:02:27;;;;;;;6.03;3.13;;;;;;;13.66;100.00;100224.16;5997879;28;20035;-66
2022/10/24 02:05:34;;;;;;;12.65;2.97;;;;;;;13.60;100.00;100212.38;5998604;28;20069;-66
2022/10/24 02:08:37;;;;;;;5.63;2.33;;;;;;;13.71;100.00;100222.63;5998709;28;20033;-67
2022/10/24 02:11:33;;;;;;;10.10;2.80;;;;;;;13.63;100.00;100208.53;5996870;28;20170;-66
2022/10/24 02:14:34;;;;;;;7.18;2.58;;;;;;;13.60;100.00;100215.03;5997258;28;20043;-66
2022/10/24 02:17:29;;;;;;;5.20;2.50;;;;;;;13.66;100.00;100227.66;6001680;28;20106;-66
2022/10/24 02:20:34;;;;;;;6.15;2.17;;;;;;;13.58;100.00;100226.88;6002833;28;20035;-67
2022/10/24 02:23:44;;;;;;;6.63;2.47;;;;;;;13.62;100.00;100236.16;6001827;28;20105;-67
2022/10/24 02:27:03;;;;;;;8.07;2.53;;;;;;;13.63;100.00;100228.00;6002019;28;21906;-67
2022/10/24 02:30:01;;;;;;;5.15;2.53;;;;;;;13.69;100.00;100218.47;6001492;28;20037;-67
2022/10/24 02:32:58;;;;;;;5.75;2.38;;;;;;;13.60;100.00;100208.88;6003015;28;20114;-67
2022/10/24 02:35:54;;;;;;;7.88;2.92;;;;;;;13.51;100.00;100204.59;6002737;28;20390;-67
2022/10/24 02:38:51;;;;;;;8.18;2.65;;;;;;;13.56;100.00;100202.25;6003012;28;20058;-67
2022/10/24 02:41:47;;;;;;;6.03;2.55;;;;;;;13.57;100.00;100203.91;6002018;28;20031;-67
2022/10/24 02:44:45;;;;;;;8.27;2.70;;;;;;;13.60;100.00;100203.56;6001630;28;20538;-67
2022/10/24 02:47:41;;;;;;;7.47;2.88;;;;;;;13.46;100.00;100173.19;6001000;28;20096;-67
2022/10/24 02:50:39;;;;;;;13.55;3.00;;;;;;;13.49;100.00;100172.00;6000370;28;20098;-66
2022/10/24 02:53:35;;;;;;;7.80;2.90;;;;;;;13.49;100.00;100170.16;6002290;28;20031;-67
2022/10/24 02:56:30;;;;;;;7.60;2.78;;;;;;;13.49;100.00;100175.50;6002244;28;20757;-67
2022/10/24 02:59:26;;;;;;;9.63;3.03;;;;;;;13.57;100.00;100194.09;6002649;28;20038;-66
2022/10/24 03:02:22;;;;;;;8.63;2.33;;;;;;;13.57;100.00;100198.56;6001666;28;20038;-67
2022/10/24 03:05:17;;;;;;;11.07;3.08;;;;;;;13.53;100.00;100191.97;6001350;28;20038;-67
2022/10/24 03:08:13;;;;;;;9.30;3.00;;;;;;;13.58;100.00;100214.41;6002230;28;20542;-67
2022/10/24 03:11:08;;;;;;;8.35;2.72;;;;;;;13.63;100.00;100211.19;6001232;28;20113;-67
2022/10/24 03:14:03;;;;;;;9.83;3.03;;;;;;;13.63;100.00;100195.22;6001882;28;20391;-67
2022/10/24 03:16:59;;;;;;;8.93;2.80;;;;;;;13.60;100.00;100184.91;6002048;28;20486;-66
2022/10/24 03:19:54;;;;;;;11.63;3.17;;;;;;;13.77;100.00;100193.59;6001327;28;20298;-67
2022/10/24 03:22:49;;;;;;;10.03;2.93;;;;;;;13.74;100.00;100173.47;6000964;28;20122;-66
2022/10/24 03:25:45;;;;;;;6.47;3.00;;;;;;;13.72;100.00;100170.16;6001522;28;20038;-67
2022/10/24 03:28:40;;;;;;;8.63;3.10;;;;;;;13.79;100.00;100172.91;6001019;28;20037;-67
2022/10/24 03:31:35;;;;;;;13.33;3.47;;;;;;;13.79;100.00;100175.59;6001318;28;20062;-67
2022/10/24 03:34:31;;;;;;;10.85;3.20;;;;;;;13.83;100.00;100167.06;6001568;28;20038;-67
2022/10/24 03:37:27;;;;;;;8.35;3.15;;;;;;;13.84;100.00;100173.19;6001271;28;20066;-66
2022/10/24 03:40:22;;;;;;;11.48;3.15;;;;;;;13.85;100.00;100177.53;6000656;28;20038;-66
2022/10/24 03:43:18;;;;;;;13.73;3.23;;;;;;;13.85;100.00;100175.72;6001556;28;20039;-66
2022/10/24 03:46:13;;;;;;;6.78;3.10;;;;;;;13.76;100.00;100176.78;6001572;28;20806;-66
2022/10/24 03:49:09;;;;;;;7.77;2.57;;;;;;;13.88;100.00;100190.50;6001225;28;20545;-67
2022/10/24 03:52:04;;;;;;;5.93;2.70;;;;;;;13.85;100.00;100186.38;6000032;28;20046;-67
2022/10/24 03:54:59;;;;;;;10.35;3.03;;;;;;;13.84;100.00;100179.38;6000439;28;20022;-66
2022/10/24 03:57:55;;;;;;;7.53;2.97;;;;;;;13.85;100.00;100174.88;6000842;28;20477;-67
2022/10/24 04:00:50;;;;;;;11.20;2.77;;;;;;;13.87;100.00;100178.19;6000230;28;20493;-67
2022/10/24 04:03:46;;;;;;;10.05;2.50;;;;;;;13.90;100.00;100165.31;6000757;28;20302;-67
2022/10/24 04:06:41;;;;;;;8.57;2.65;;;;;;;14.01;100.00;100188.88;6000890;28;20039;-66
2022/10/24 04:09:37;;;;;;;8.07;3.27;;;;;;;14.00;100.00;100176.56;6000516;28;20141;-67
2022/10/24 04:12:32;;;;;;;9.03;2.97;;;;;;;13.99;100.00;100172.25;6000226;28;20294;-65
2022/10/24 04:15:28;;;;;;;8.63;3.28;;;;;;;14.00;100.00;100176.56;6000593;28;20038;-66
2022/10/24 04:18:23;;;;;;;10.00;2.70;;;;;;;14.08;100.00;100187.13;6000371;28;20045;-66
2022/10/24 04:21:19;;;;;;;15.00;3.17;;;;;;;14.09;100.00;100178.13;5999944;28;20339;-67
2022/10/24 04:24:14;;;;;;;8.52;2.75;;;;;;;14.04;100.00;100169.88;5997185;28;20085;-67
2022/10/24 04:27:09;;;;;;;8.77;2.70;;;;;;;14.18;100.00;100177.06;6000073;28;20042;-67
2022/10/24 04:30:10;;;;;;;5.67;2.50;;;;;;;14.18;100.00;100182.41;5999676;28;20034;-67
2022/10/24 04:33:05;;;;;;;6.95;2.75;;;;;;;14.21;100.00;100175.88;6000622;28;20027;-67
2022/10/24 04:36:00;;;;;;;5.57;2.17;;;;;;;14.34;100.00;100180.59;6000146;28;20046;-67
2022/10/24 04:38:56;;;;;;;8.90;2.40;;;;;;;14.31;100.00;100160.41;5999037;28;20030;-67
2022/10/24 04:41:51;;;;;;;6.55;2.70;;;;;;;14.42;100.00;100175.16;5999158;28;20561;-67
2022/10/24 04:44:47;;;;;;;11.05;2.88;;;;;;;14.35;100.00;100166.25;5999847;28;20026;-67
2022/10/24 04:47:43;;;;;;;8.10;2.53;;;;;;;14.36;100.00;100167.88;6000054;28;20118;-67
2022/10/24 04:50:41;;;;;;;9.07;2.90;;;;;;;14.32;100.00;100165.59;5999172;28;20034;-67
2022/10/24 04:53:36;;;;;;;8.63;2.60;;;;;;;14.40;100.00;100145.19;5999557;28;20077;-66
2022/10/24 04:56:31;;;;;;;7.03;2.73;;;;;;;14.62;100.00;100165.59;5999853;28;20431;-66
2022/10/24 04:59:27;;;;;;;11.37;3.20;;;;;;;14.61;100.00;100174.59;5999031;28;20285;-67
2022/10/24 05:02:22;;;;;;;6.70;2.45;;;;;;;14.63;100.00;100177.91;5999229;28;20274;-66
2022/10/24 05:05:18;;;;;;;9.70;2.40;;;;;;;14.60;100.00;100196.97;5999419;28;20089;-67
2022/10/24 05:08:14;;;;;;;8.98;2.83;;;;;;;14.51;100.00;100176.72;5999083;28;20035;-67
2022/10/24 05:11:10;;;;;;;12.52;3.58;;;;;;;14.64;100.00;100180.41;5998673;28;20378;-66
2022/10/24 05:14:05;;;;;;;13.40;2.78;;;;;;;14.67;100.00;100181.88;5998835;28;20034;-66
2022/10/24 05:17:01;;;;;;;7.47;2.30;;;;;;;14.61;100.00;100178.09;5999250;28;20085;-66
2022/10/24 05:19:56;;;;;;;7.15;2.13;;;;;;;14.65;100.00;100187.38;5999379;28;20805;-67
2022/10/24 05:22:51;;;;;;;7.97;2.37;;;;;;;14.69;100.00;100186.00;5998445;28;20090;-66
2022/10/24 05:25:47;;;;;;;5.68;2.22;;;;;;;14.51;100.00;100166.06;5997915;28;20081;-67
2022/10/24 05:28:42;;;;;;;16.13;3.10;;;;;;;14.50;100.00;100169.72;5998844;28;20785;-67
2022/10/24 05:31:38;;;;;;;7.77;2.50;;;;;;;14.43;100.00;100158.16;5998200;28;20047;-66
2022/10/24 05:34:33;;;;;;;8.10;2.28;;;;;;;14.48;100.00;100172.59;5998931;28;20070;-66
2022/10/24 05:37:28;;;;;;;12.43;2.57;;;;;;;14.43;100.00;100152.81;5999162;28;20046;-67
2022/10/24 05:40:24;;;;;;;11.15;2.85;;;;;;;14.50;100.00;100143.88;5998385;28;20113;-66
2022/10/24 05:43:19;;;;;;;11.97;2.57;;;;;;;14.62;100.00;100168.28;5998884;28;20027;-67
2022/10/24 05:46:14;;;;;;;8.73;2.70;;;;;;;14.57;100.00;100162.63;5999204;28;20114;-66
2022/10/24 05:49:12;;;;;;;12.17;2.60;;;;;;;14.65;100.00;100165.19;5998333;28;20041;-66
2022/10/24 05:52:07;;;;;;;7.78;2.40;;;;;;;14.59;100.00;100152.63;6004805;28;20062;-66
2022/10/24 05:55:06;;;;;;;10.93;2.70;;;;;;;14.61;100.00;100161.25;6006365;28;20041;-67
2022/10/24 05:58:03;;;;;;;13.10;2.40;;;;;;;14.64;100.00;100152.88;6006263;28;20046;-67
2022/10/24 06:00:58;;;;;;;5.57;2.20;;;;;;;14.59;100.00;100136.63;6005988;28;20038;-66
2022/10/24 06:03:53;;;;;;;7.30;3.00;;;;;;;14.65;100.00;100152.69;6006029;28;20727;-66
2022/10/24 06:06:49;;;;;;;7.77;2.57;;;;;;;14.68;100.00;100156.81;6006666;28;20034;-66
2022/10/24 06:09:44;;;;;;;12.47;3.30;;;;;;;14.76;99.67;100148.72;6006716;28;20031;-67
2022/10/24 06:12:40;;;;;;;10.03;3.20;;;;;;;14.68;99.51;100157.66;6005667;28;20070;-66
2022/10/24 06:15:35;;;;;;;12.25;2.78;;;;;;;14.66;100.00;100156.19;6006381;28;20049;-66
2022/10/24 06:18:30;;;;;;;9.40;2.37;;;;;;;14.60;100.00;100170.28;6006315;28;20030;-67
2022/10/24 06:21:26;;;;;;;8.98;2.40;;;;;;;14.54;100.00;100165.69;6005627;28;20034;-67
2022/10/24 06:24:21;;;;;;;10.50;3.13;;;;;;;14.60;100.00;100178.28;6006161;28;20125;-67
2022/10/24 06:27:17;;;;;;;5.37;2.30;;;;;;;14.60;100.00;100171.09;6005906;28;20027;-67
2022/10/24 06:30:12;;;;;;;10.18;3.10;;;;;;;14.70;100.00;100168.16;6005632;28;20049;-66
2022/10/24 06:33:07;;;;;;;4.23;2.07;;;;;;;14.74;99.71;100180.09;6006220;28;20514;-67
2022/10/24 06:36:05;;;;;;;9.00;2.70;;;;;;;14.70;99.71;100176.19;6006056;28;20105;-66
2022/10/24 06:39:00;;;;;;;8.63;2.30;;;;;;;14.73;99.35;100171.28;6002065;28;20328;-67
2022/10/24 06:41:55;;;;;;;10.23;2.80;;;;;;;14.80;99.36;100177.53;6005315;28;20420;-67
2022/10/24 06:44:51;;;;;;;7.97;2.63;;;;;;;14.81;98.67;100176.50;6006235;28;20030;-67
2022/10/24 06:47:46;;;;;;;8.10;3.50;;;;;;;14.73;98.62;100173.94;6006012;28;20477;-66
2022/10/24 06:50:41;;;;;;;11.57;2.47;;;;;;;14.83;98.63;100181.69;6005637;28;20277;-67
2022/10/24 06:53:37;;;;;;;7.53;2.47;;;;;;;14.93;97.88;100170.69;6005743;28;20073;-66
2022/10/24 06:56:32;;;;;;;6.63;2.43;;;;;;;14.95;97.67;100168.69;6005692;28;20370;-66
2022/10/24 06:59:27;;;;;;;12.48;2.75;;;;;;;14.92;97.83;100174.38;6005942;28;20467;-67
2022/10/24 07:02:23;;;;;;;12.07;2.95;;;;;;;14.88;98.36;100168.59;6002375;28;20141;-67
2022/10/24 07:05:18;;;;;;;9.37;2.50;;;;;;;14.94;98.20;100183.88;6001999;28;20031;-67
2022/10/24 07:08:14;;;;;;;12.07;3.08;;;;;;;14.98;97.32;100179.78;6001647;28;20070;-67
2022/10/24 07:11:09;;;;;;;9.40;2.43;;;;;;;15.12;96.85;100191.47;6000756;28;20122;-65
2022/10/24 07:14:05;;;;;;;10.10;2.50;;;;;;;15.15;96.17;100191.09;6001972;28;20042;-66
2022/10/24 07:17:00;;;;;;;10.63;2.95;;;;;;;15.16;96.10;100188.25;6001805;28;20035;-66
2022/10/24 07:19:56;;;;;;;6.77;2.00;;;;;;;15.33;94.83;100186.13;6001877;28;20533;-66
2022/10/24 07:22:51;;;;;;;17.95;3.58;;;;;;;15.37;94.41;100185.59;6001053;28;20027;-67
2022/10/24 07:25:46;;;;;;;9.87;2.37;;;;;;;15.39;93.79;100183.53;6000986;28;20023;-65
2022/10/24 07:28:45;;;;;;;10.90;2.63;;;;;;;15.48;93.70;100182.44;6001276;28;20065;-66
2022/10/24 07:31:40;;;;;;;5.03;2.17;;;;;;;15.61;93.39;100191.59;6000584;28;20761;-66
2022/10/24 07:34:35;;;;;;;7.90;2.28;;;;;;;15.64;92.85;100169.84;6001267;28;20033;-67
2022/10/24 07:37:31;;;;;;;5.07;1.80;;;;;;;15.87;91.79;100186.50;6001211;28;20046;-67
2022/10/24 07:40:26;;;;;;;10.93;2.80;;;;;;;15.95;90.65;100181.00;6000260;28;20714;-66
2022/10/24 07:43:21;;;;;;;12.63;2.60;;;;;;;16.07;89.52;100176.78;6001003;28;20042;-66
2022/10/24 07:46:18;;;;;;;10.87;2.70;;;;;;;16.11;89.34;100178.06;6001160;28;20026;-67
2022/10/24 07:49:13;;;;;;;8.27;2.40;;;;;;;16.21;88.78;100183.03;6001040;28;20290;-66
2022/10/24 07:52:09;;;;;;;7.97;2.30;;;;;;;16.22;87.76;100174.84;6000399;28;20169;-67
2022/10/24 07:55:04;;;;;;;5.70;1.98;;;;;;;16.29;87.97;100193.59;6000828;28;20323;-66
2022/10/24 07:58:00;;;;;;;10.45;2.33;;;;;;;16.46;86.69;100181.56;6000526;28;20062;-67
2022/10/24 08:01:04;;;;;;;6.67;2.20;;;;;;;16.60;85.84;100194.84;5999944;28;20073;-66
2022/10/24 08:03:59;;;;;;;7.60;2.10;;;;;;;16.66;85.97;100188.72;5988989;28;20074;-67
2022/10/24 08:06:55;;;;;;;5.80;2.40;;;;;;;16.86;84.13;100187.97;6000686;28;20084;-66
2022/10/24 08:09:51;;;;;;;10.50;2.40;;;;;;;16.77;84.21;100163.22;6001020;28;20049;-66
2022/10/24 08:12:46;;;;;;;9.13;2.43;;;;;;;16.86;83.45;100171.91;6000105;28;20030;-66
2022/10/24 08:15:41;;;;;;;4.57;2.03;;;;;;;17.10;82.71;100176.72;6000012;28;21137;-66
2022/10/24 08:18:38;;;;;;;7.68;2.10;;;;;;;17.31;82.10;100187.34;6000790;28;20675;-66
2022/10/24 08:21:35;;;;;;;7.22;1.90;;;;;;;17.42;80.67;100185.91;5999880;28;20108;-67
2022/10/24 08:24:30;;;;;;;14.30;2.67;;;;;;;17.53;80.22;100175.44;6000883;28;20042;-66
2022/10/24 08:27:25;;;;;;;9.20;1.90;;;;;;;17.56;79.80;100175.03;6000628;28;20035;-67
2022/10/24 08:30:21;;;;;;;5.90;1.83;;;;;;;17.70;79.11;100168.66;5999780;28;20554;-67
2022/10/24 08:33:16;;;;;;;7.33;2.03;;;;;;;17.64;79.42;100182.88;6000634;28;20035;-67
2022/10/24 08:36:29;;;;;;;7.37;1.70;;;;;;;17.68;78.91;100168.03;5999999;28;20038;-67
2022/10/24 08:39:25;;;;;;;5.65;1.83;;;;;;;17.61;79.46;100172.53;6000009;28;20383;-67
2022/10/24 08:42:24;;;;;;;7.28;2.03;;;;;;;17.71;78.72;100183.72;5999355;28;20035;-67
2022/10/24 08:45:38;;;;;;;5.65;2.10;;;;;;;17.66;79.32;100175.47;6000501;28;20035;-67
2022/10/24 08:48:48;;;;;;;10.68;2.00;;;;;;;17.64;79.11;100166.78;5998222;28;20101;-67
2022/10/24 08:51:51;;;;;;;7.70;2.17;;;;;;;17.82;78.80;100172.38;5998221;28;20029;-67
2022/10/24 08:54:47;;;;;;;10.60;2.15;;;;;;;17.81;77.55;100157.31;5999531;28;20035;-66
2022/10/24 08:57:46;;;;;;;13.02;2.40;;;;;;;17.91;77.19;100166.81;5998744;28;20046;-66
2022/10/24 09:00:44;;;;;;;13.65;2.25;;;;;;;17.98;76.87;100156.88;5997957;28;20031;-66
2022/10/24 09:03:42;;;;;;;8.98;1.90;;;;;;;18.08;76.97;100168.84;5999102;28;20054;-67
2022/10/24 09:06:38;;;;;;;5.20;1.70;;;;;;;18.25;75.26;100164.69;6013236;28;20039;-67
2022/10/24 09:09:41;;;;;;;6.67;1.90;;;;;;;18.36;75.33;100160.56;5997900;28;20034;-67
2022/10/24 09:12:38;;;;;;;8.40;2.45;;;;;;;18.51;73.74;100174.56;5997732;28;20290;-67
2022/10/24 09:15:34;;;;;;;10.57;3.42;;;;;;;18.68;72.90;100167.72;5999452;28;20037;-67
2022/10/24 09:18:38;;;;;;;7.17;2.07;;;;;;;18.79;72.46;100172.44;5998625;28;20546;-67
2022/10/24 09:21:33;;;;;;;9.27;1.90;;;;;;;18.93;71.76;100151.72;5998813;28;20039;-67
2022/10/24 09:24:38;;;;;;;11.73;1.75;;;;;;;19.11;70.59;100169.81;5999012;28;20550;-67
2022/10/24 09:27:38;;;;;;;6.47;1.63;;;;;;;19.21;70.20;100159.44;5997895;28;20039;-67
2022/10/24 09:30:36;;;;;;;7.82;1.80;;;;;;;19.37;70.39;100164.28;5998433;28;20031;-67
2022/10/24 09:33:35;;;;;;;12.60;2.08;;;;;;;19.31;70.87;100165.16;5999234;28;20054;-67
2022/10/24 09:36:30;;;;;;;5.38;1.58;;;;;;;19.28;69.52;100152.13;5999105;28;20438;-67
2022/10/24 09:39:31;;;;;;;8.68;1.80;;;;;;;19.58;68.63;100155.91;5998528;28;20054;-67
2022/10/24 09:42:26;;;;;;;6.40;1.95;;;;;;;19.41;68.17;100144.84;5998924;28;20031;-66
2022/10/24 09:45:36;;;;;;;8.97;1.80;;;;;;;19.68;67.61;100166.16;5999050;28;20031;-67
2022/10/24 09:48:51;;;;;;;7.25;1.60;;;;;;;20.01;66.75;100167.56;5999013;28;20818;-67
2022/10/24 09:52:01;;;;;;;6.95;1.65;;;;;;;19.94;66.08;100157.91;5997079;28;20093;-67
2022/10/24 09:55:19;;;;;;;6.40;1.90;;;;;;;19.96;66.13;100166.56;5997245;28;20065;-67
2022/10/24 09:58:20;;;;;;;8.55;2.60;;;;;;;19.77;66.38;100168.38;5998722;28;20481;-67
2022/10/24 10:01:15;;;;;;;8.43;1.60;;;;;;;19.87;66.13;100171.41;5997547;28;20043;-67
2022/10/24 10:04:18;;;;;;;9.77;2.03;;;;;;;19.67;66.25;100162.69;5998494;28;20057;-67
2022/10/24 10:07:19;;;;;;;6.40;1.52;;;;;;;19.63;67.07;100168.69;5997536;28;20035;-67
2022/10/24 10:10:18;;;;;;;6.22;1.52;;;;;;;19.57;65.47;100163.16;5996120;28;20050;-67
2022/10/24 10:13:23;;;;;;;9.07;2.05;;;;;;;19.41;66.55;100155.59;5998689;28;20039;-66
2022/10/24 10:16:33;;;;;;;6.18;1.65;;;;;;;19.60;66.55;100180.72;5998355;28;20475;-67
2022/10/24 10:19:33;;;;;;;9.38;1.70;;;;;;;19.82;65.70;100182.00;5997382;28;20110;-67
2022/10/24 10:22:30;;;;;;;7.95;1.45;;;;;;;20.11;63.73;100173.25;5997938;28;20097;-67
2022/10/24 10:25:31;;;;;;;6.80;1.60;;;;;;;20.40;64.71;100179.88;5998358;28;20053;-67
2022/10/24 10:28:26;;;;;;;6.78;1.63;;;;;;;20.83;62.10;100187.06;5988059;28;20031;-66
2022/10/24 10:31:26;;;;;;;9.50;1.77;;;;;;;20.61;61.36;100178.59;5998289;28;20379;-67
2022/10/24 10:34:30;;;;;;;5.28;1.80;;;;;;;20.71;60.75;100184.28;5998790;28;20069;-67
2022/10/24 10:37:34;;;;;;;7.82;1.88;;;;;;;20.59;61.47;100186.09;5999300;28;20046;-67
2022/10/24 10:40:36;;;;;;;5.03;1.52;;;;;;;20.42;62.11;100174.25;6001093;28;20057;-67
2022/10/24 10:43:43;;;;;;;7.57;1.60;;;;;;;20.38;61.71;100178.44;6001143;28;20035;-67
2022/10/24 10:46:43;;;;;;;7.07;2.15;;;;;;;20.41;62.54;100191.47;6001629;28;20479;-67
2022/10/24 10:49:40;;;;;;;8.40;1.77;;;;;;;20.28;62.66;100178.94;6002363;28;20074;-67
2022/10/24 10:52:45;;;;;;;8.20;1.67;;;;;;;20.41;63.35;100184.19;6002091;28;20113;-67
2022/10/24 10:56:18;;;;;;;7.18;1.38;;;;;;;20.52;62.49;100190.72;6002427;28;20029;-67
2022/10/24 10:59:34;;;;;;;5.47;1.70;;;;;;;20.51;62.44;100194.47;5994091;28;20058;-67
2022/10/24 11:02:56;;;;;;;5.63;1.42;;;;;;;20.36;62.91;100207.44;6000596;28;20050;-67
2022/10/24 11:06:06;;;;;;;7.57;1.40;;;;;;;20.47;62.21;100218.31;5997989;28;20050;-67
2022/10/24 11:09:16;;;;;;;7.97;1.92;;;;;;;20.17;60.76;100204.69;6000734;28;20077;-66
2022/10/24 11:12:18;;;;;;;8.35;1.55;;;;;;;19.76;61.79;100209.78;6001327;28;20529;-67
2022/10/24 11:15:26;;;;;;;6.30;1.85;;;;;;;19.93;61.55;100212.75;6000520;28;20116;-66
2022/10/24 11:18:25;;;;;;;7.88;1.30;;;;;;;20.01;61.06;100205.25;6000565;28;20042;-68
2022/10/24 11:21:23;;;;;;;6.50;1.80;;;;;;;20.13;61.16;100213.44;6001440;28;20450;-67
2022/10/24 11:24:20;;;;;;;8.13;1.80;;;;;;;19.99;61.09;100218.09;6001429;28;20114;-67
2022/10/24 11:27:23;;;;;;;5.25;1.45;;;;;;;19.92;60.84;100211.94;5999977;28;20463;-67
2022/10/24 11:30:34;;;;;;;4.45;1.25;;;;;;;19.88;62.43;100209.91;6000802;28;20035;-67
2022/10/24 11:33:42;;;;;;;4.70;1.35;;;;;;;19.83;61.36;100205.19;5999488;28;20043;-67
2022/10/24 11:36:57;;;;;;;4.22;1.33;;;;;;;19.77;62.49;100227.59;6000113;28;20041;-66
2022/10/24 11:40:02;;;;;;;3.30;1.20;;;;;;;19.63;63.17;100207.19;6000730;28;20161;-67
2022/10/24 11:43:06;;;;;;;8.70;1.52;;;;;;;19.64;63.12;100208.84;5987790;28;20054;-66
2022/10/24 11:46:19;;;;;;;7.28;1.20;;;;;;;19.75;61.71;100197.38;5999678;28;20086;-67
2022/10/24 11:49:22;;;;;;;6.15;1.52;;;;;;;20.27;61.21;100188.06;5998796;28;20034;-67
2022/10/24 11:52:21;;;;;;;7.82;2.17;;;;;;;20.18;59.98;100214.44;5998632;28;20471;-67
2022/10/24 11:55:23;;;;;;;6.72;1.33;;;;;;;19.89;60.64;100222.34;5999242;28;20038;-66
2022/10/24 11:58:20;;;;;;;5.00;1.58;;;;;;;19.84;61.22;100209.50;5999259;28;20476;-67
2022/10/24 12:01:23;;;;;;;6.40;1.60;;;;;;;19.86;61.21;100225.47;5998670;28;20069;-66
2022/10/24 12:04:40;;;;;;;5.15;1.13;;;;;;;19.70;61.41;100217.91;5998994;28;20043;-67
2022/10/24 12:08:21;;;;;;;3.92;1.25;;;;;;;19.61;61.67;100209.28;6000666;28;20034;-66
2022/10/24 12:11:35;;;;;;;3.03;1.33;;;;;;;19.43;62.38;100217.25;6000182;28;20430;-67
2022/10/24 12:14:44;;;;;;;6.25;1.63;;;;;;;19.28;62.99;100205.91;6000615;28;20030;-67
2022/10/24 12:17:58;;;;;;;9.25;1.65;;;;;;;19.15;63.26;100214.06;5999397;28;20031;-66
2022/10/24 12:20:57;;;;;;;3.95;1.40;;;;;;;19.06;63.50;100220.69;5999606;28;20030;-67
2022/10/24 12:23:57;;;;;;;5.28;1.35;;;;;;;19.05;64.11;100216.38;5999204;28;20035;-67
2022/10/24 12:26:56;;;;;;;6.90;1.20;;;;;;;19.30;63.44;100211.91;6000604;28;20034;-67
2022/10/24 12:30:15;;;;;;;4.38;1.10;;;;;;;19.49;62.95;100195.69;5999079;28;20065;-67
2022/10/24 12:33:25;;;;;;;8.40;1.50;;;;;;;19.62;62.49;100212.78;6000707;28;20059;-67
2022/10/24 12:36:58;;;;;;;2.88;1.10;;;;;;;19.77;62.34;100224.06;6000320;28;20046;-67
2022/10/24 12:39:54;;;;;;;7.03;1.55;;;;;;;19.78;62.54;100225.72;6000056;28;20038;-67
2022/10/24 12:42:50;;;;;;;10.65;1.40;;;;;;;19.53;63.16;100231.88;5999805;28;20557;-67
2022/10/24 12:45:46;;;;;;;7.63;1.63;;;;;;;19.56;63.20;100236.00;6000182;28;20034;-67
2022/10/24 12:49:05;;;;;;;9.87;1.30;;;;;;;19.39;64.03;100237.53;5998523;28;20035;-67
2022/10/24 12:52:29;;;;;;;4.30;1.30;;;;;;;19.23;63.10;100219.19;5996052;28;20497;-66
2022/10/24 12:55:30;;;;;;;4.88;1.20;;;;;;;19.35;64.11;100220.97;5999434;28;20038;-67
2022/10/24 12:58:29;;;;;;;7.47;1.65;;;;;;;19.27;64.20;100223.91;5999574;28;20475;-67
2022/10/24 13:01:33;;;;;;;9.10;1.38;;;;;;;19.11;63.33;100208.25;5998196;28;20375;-67
2022/10/24 13:04:37;;;;;;;8.07;1.13;;;;;;;19.18;63.70;100227.06;5999544;28;20118;-66
2022/10/24 13:07:55;;;;;;;3.47;1.25;;;;;;;19.18;63.28;100224.38;5999174;28;20738;-67
2022/10/24 13:10:50;;;;;;;7.85;1.40;;;;;;;19.15;63.18;100225.63;5998457;28;20046;-66
2022/10/24 13:13:55;;;;;;;2.63;1.07;;;;;;;19.22;63.89;100209.44;5999194;28;20437;-67
2022/10/24 13:16:59;;;;;;;7.13;1.48;;;;;;;19.04;64.41;100218.22;5999429;28;20507;-67
2022/10/24 13:20:44;;;;;;;7.10;2.03;;;;;;;19.20;64.72;100220.44;5998131;28;20062;-67
2022/10/24 13:23:42;;;;;;;2.80;1.23;;;;;;;19.13;64.13;100218.81;5996769;28;20050;-66
2022/10/24 13:26:46;;;;;;;4.28;1.30;;;;;;;19.07;63.98;100233.09;5997725;28;20038;-67
2022/10/24 13:29:42;;;;;;;5.88;1.10;;;;;;;19.23;64.22;100232.63;5998789;28;20062;-67
2022/10/24 13:32:38;;;;;;;5.88;1.15;;;;;;;19.09;64.61;100226.47;5998672;28;20501;-67
2022/10/24 13:35:34;;;;;;;5.43;1.17;;;;;;;19.09;64.11;100236.41;5999092;28;20113;-67
2022/10/24 13:38:30;;;;;;;7.95;1.30;;;;;;;19.10;63.95;100238.91;5997592;28;20066;-67
2022/10/24 13:41:35;;;;;;;9.18;1.15;;;;;;;18.94;64.25;100229.41;5997406;28;20069;-67
2022/10/24 13:44:43;;;;;;;5.80;1.10;;;;;;;18.98;64.31;100243.25;5990816;28;20039;-67
2022/10/24 13:47:48;;;;;;;4.78;0.80;;;;;;;18.91;63.63;100227.19;5996293;28;20030;-67